Terminal Aerodrome Forecast
Issued by NWS Hastings, NE

Home | Current Version | Previous Version | Text Only | Print | Product List | Glossary On
Versions: 1 2 3 4 5 6 7 8 9 10 11 12 13 14
000
FTUS45 KGID 302338
TAFEAR
TAF
KEAR 302338Z 3100/3124 19010KT P6SM OVC060
     FM310400 19010KT P6SM -RA OVC050
     FM310900 17008KT 4SM -RASN OVC025
     FM311100 17010KT 3SM -RASN BR OVC012
     FM311400 17009KT 3SM -RASN BR OVC005
      AMD LTD TO CLD VIS AND WIND=

USA.gov is the U.S. government's official web portal to all federal, state and local government web resources and services.